createdAt,value
2023-04-11T00:00:44.002Z,100413.37
2023-04-11T00:02:35.555Z,100408.52
2023-04-11T00:04:28.059Z,100410.14
2023-04-11T00:06:19.535Z,100411.25
2023-04-11T00:08:11.269Z,100409.92
2023-04-11T00:10:03.191Z,100405.88
2023-04-11T00:11:54.638Z,100401.97
2023-04-11T00:13:47.750Z,100401.20
2023-04-11T00:15:39.512Z,100397.41
2023-04-11T00:17:31.864Z,100396.66
2023-04-11T00:19:25.670Z,100396.39
2023-04-11T00:21:17.687Z,100397.09
2023-04-11T00:23:09.503Z,100397.67
2023-04-11T00:25:01.343Z,100391.04
2023-04-11T00:26:53.440Z,100390.48
2023-04-11T00:28:44.859Z,100388.59
2023-04-11T00:30:36.871Z,100384.12
2023-04-11T00:32:28.414Z,100379.30
2023-04-11T00:34:20.111Z,100380.91
2023-04-11T00:36:12.152Z,100374.29
2023-04-11T00:38:05.048Z,100372.97
2023-04-11T00:39:56.604Z,100363.89
2023-04-11T00:41:48.761Z,100362.59
2023-04-11T00:43:40.601Z,100359.43
2023-04-11T00:45:32.621Z,100360.73
2023-04-11T00:47:24.429Z,100355.84
2023-04-11T00:49:16.116Z,100351.05
2023-04-11T00:51:07.860Z,100353.31
2023-04-11T00:52:59.812Z,100352.02
2023-04-11T00:54:51.828Z,100349.51
2023-04-11T00:56:43.511Z,100346.52
2023-04-11T00:58:37.507Z,100346.02
2023-04-11T01:00:30.000Z,100343.89
2023-04-11T01:02:21.898Z,100345.21
2023-04-11T01:04:13.739Z,100342.80
2023-04-11T01:06:07.055Z,100343.70
2023-04-11T01:07:59.914Z,100337.47
2023-04-11T01:09:52.480Z,100333.18
2023-04-11T01:11:43.865Z,100331.89
2023-04-11T01:13:38.222Z,100330.37
2023-04-11T01:15:30.339Z,100328.48
2023-04-11T01:17:22.118Z,100323.59
2023-04-11T01:19:19.638Z,100316.75
2023-04-11T01:21:11.564Z,100313.31
2023-04-11T01:23:03.401Z,100318.64
2023-04-11T01:24:55.018Z,100317.36
2023-04-11T01:26:46.457Z,100316.28
2023-04-11T01:28:38.133Z,100318.52
2023-04-11T01:30:30.192Z,100312.97
2023-04-11T01:32:21.942Z,100309.30
2023-04-11T01:34:14.904Z,100307.40
2023-04-11T01:36:07.809Z,100299.48
2023-04-11T01:37:59.317Z,100292.63
2023-04-11T01:39:51.385Z,100288.64
2023-04-11T01:41:43.990Z,100283.09
2023-04-11T01:43:35.811Z,100284.77
2023-04-11T01:45:28.402Z,100288.24
2023-04-11T01:47:19.945Z,100276.42
2023-04-11T01:49:15.767Z,100272.39
2023-04-11T01:51:07.556Z,100272.95
2023-04-11T01:52:59.138Z,100268.84
2023-04-11T01:54:50.527Z,100268.74
2023-04-11T01:56:42.423Z,100269.48
2023-04-11T01:58:36.636Z,100265.80
2023-04-11T02:00:28.485Z,100265.48
2023-04-11T02:02:20.207Z,100264.70
2023-04-11T02:04:12.006Z,100262.34
2023-04-11T02:06:04.098Z,100260.96
2023-04-11T02:07:55.994Z,100255.49
2023-04-11T02:09:47.476Z,100246.17
2023-04-11T02:11:39.462Z,100242.96
2023-04-11T02:13:31.012Z,100238.58
2023-04-11T02:15:22.328Z,100236.93
2023-04-11T02:17:14.191Z,100236.57
2023-04-11T02:19:05.880Z,100231.64
2023-04-11T02:20:57.149Z,100226.95
2023-04-11T02:22:49.171Z,100221.58
2023-04-11T02:24:40.963Z,100220.04
2023-04-11T02:26:32.779Z,100216.91
2023-04-11T02:28:24.555Z,100214.90
2023-04-11T02:30:16.289Z,100215.20
2023-04-11T02:32:08.318Z,100209.98
2023-04-11T02:34:00.247Z,100215.65
2023-04-11T02:35:52.231Z,100212.69
2023-04-11T02:37:43.823Z,100212.67
2023-04-11T02:39:35.761Z,100214.71
2023-04-11T02:41:27.597Z,100214.10
2023-04-11T02:43:19.213Z,100214.36
2023-04-11T02:45:11.922Z,100213.45
2023-04-11T02:47:03.782Z,100214.84
2023-04-11T02:48:56.086Z,100211.68
2023-04-11T02:50:48.222Z,100211.21
2023-04-11T02:52:42.283Z,100210.14
2023-04-11T02:54:34.003Z,100208.92
2023-04-11T02:56:25.971Z,100201.91
2023-04-11T02:58:20.162Z,100202.99
2023-04-11T03:00:12.353Z,100195.45
2023-04-11T03:02:04.359Z,100193.29
2023-04-11T03:03:55.918Z,100193.20
2023-04-11T03:05:47.683Z,100188.23
2023-04-11T03:07:40.730Z,100186.76
2023-04-11T03:09:32.416Z,100182.81
2023-04-11T03:11:24.539Z,100185.15
2023-04-11T03:13:16.170Z,100179.69
2023-04-11T03:15:08.811Z,100177.48
2023-04-11T03:17:00.202Z,100175.75
2023-04-11T03:18:51.687Z,100174.52
2023-04-11T03:20:43.619Z,100171.06
2023-04-11T03:22:35.238Z,100169.31
2023-04-11T03:24:26.991Z,100164.05
2023-04-11T03:26:19.103Z,100162.41
2023-04-11T03:28:11.360Z,100157.78
2023-04-11T03:30:03.846Z,100157.06
2023-04-11T03:31:55.649Z,100157.42
2023-04-11T03:33:47.277Z,100151.09
2023-04-11T03:35:39.080Z,100149.13
2023-04-11T03:37:30.509Z,100144.73
2023-04-11T03:39:22.480Z,100142.63
2023-04-11T03:41:14.520Z,100136.05
2023-04-11T03:43:06.500Z,100131.92
2023-04-11T03:44:58.320Z,100127.40
2023-04-11T03:46:50.243Z,100125.52
2023-04-11T03:48:41.939Z,100121.98
2023-04-11T03:50:33.520Z,100119.02
2023-04-11T03:52:25.181Z,100117.51
2023-04-11T03:54:18.208Z,100120.94
2023-04-11T03:56:10.639Z,100115.12
2023-04-11T03:58:02.444Z,100109.38
2023-04-11T03:59:56.787Z,100111.66
2023-04-11T04:01:48.544Z,100108.20
2023-04-11T04:03:40.450Z,100114.04
2023-04-11T04:05:32.638Z,100116.65
2023-04-11T04:07:25.440Z,100117.89
2023-04-11T04:09:17.185Z,100118.98
2023-04-11T04:11:08.732Z,100116.36
2023-04-11T04:13:00.151Z,100118.79
2023-04-11T04:14:52.523Z,100117.88
2023-04-11T04:16:44.683Z,100115.96
2023-04-11T04:18:36.230Z,100117.44
2023-04-11T04:20:27.966Z,100117.00
2023-04-11T04:22:19.590Z,100118.65
2023-04-11T04:24:12.335Z,100112.08
2023-04-11T04:26:04.276Z,100117.23
2023-04-11T04:27:58.303Z,100114.56
2023-04-11T04:29:56.911Z,100112.88
2023-04-11T04:31:57.093Z,100102.64
2023-04-11T04:33:50.209Z,100094.98
2023-04-11T04:35:42.128Z,100088.90
2023-04-11T04:37:33.920Z,100083.44
2023-04-11T04:39:25.571Z,100078.02
2023-04-11T04:41:28.784Z,100075.81
2023-04-11T04:43:23.080Z,100073.63
2023-04-11T04:45:14.454Z,100071.20
2023-04-11T04:47:06.015Z,100067.98
2023-04-11T04:48:57.403Z,100064.52
2023-04-11T04:50:48.844Z,100068.56
2023-04-11T04:52:41.140Z,100071.92
2023-04-11T04:54:32.985Z,100072.04
2023-04-11T04:56:24.437Z,100071.64
2023-04-11T04:58:16.297Z,100075.38
2023-04-11T05:00:09.803Z,100073.62
2023-04-11T05:02:01.401Z,100071.69
2023-04-11T05:04:00.217Z,100069.17
2023-04-11T05:05:52.255Z,100060.89
2023-04-11T05:07:50.569Z,100055.09
2023-04-11T05:09:42.448Z,100049.22
2023-04-11T05:11:34.487Z,100044.34
2023-04-11T05:13:25.955Z,100039.41
2023-04-11T05:15:17.849Z,100034.05
2023-04-11T05:17:10.091Z,100031.95
2023-04-11T05:19:01.999Z,100029.52
2023-04-11T05:20:53.639Z,100025.72
2023-04-11T05:22:45.405Z,100022.05
2023-04-11T05:24:37.493Z,100012.06
2023-04-11T05:26:29.300Z,100010.80
2023-04-11T05:28:21.465Z,100004.01
2023-04-11T05:30:13.455Z,100000.12
2023-04-11T05:32:05.037Z,99993.18
2023-04-11T05:33:58.076Z,99987.76
2023-04-11T05:35:51.312Z,99984.33
2023-04-11T05:37:45.395Z,99981.57
2023-04-11T05:39:37.257Z,99978.34
2023-04-11T05:41:35.570Z,99975.80
2023-04-11T05:43:27.157Z,99973.27
2023-04-11T05:45:18.773Z,99969.80
2023-04-11T05:47:11.921Z,99967.86
2023-04-11T05:49:03.814Z,99962.25
2023-04-11T05:50:56.762Z,99956.22
2023-04-11T05:52:48.283Z,99960.41
2023-04-11T05:54:40.308Z,99954.35
2023-04-11T05:56:32.098Z,99949.81
2023-04-11T05:58:24.784Z,99949.34
2023-04-11T06:00:17.326Z,99947.15
2023-04-11T06:02:09.177Z,99942.89
2023-04-11T06:04:01.362Z,99939.34
2023-04-11T06:05:54.446Z,99936.71
2023-04-11T06:07:46.468Z,99936.84
2023-04-11T06:09:39.466Z,99930.60
2023-04-11T06:11:31.169Z,99929.21
2023-04-11T06:13:22.582Z,99928.19
2023-04-11T06:15:14.410Z,99930.73
2023-04-11T06:17:06.128Z,99934.56
2023-04-11T06:18:57.852Z,99932.44
2023-04-11T06:20:49.936Z,99932.09
2023-04-11T06:22:41.794Z,99929.92
2023-04-11T06:24:40.725Z,99927.86
2023-04-11T06:26:32.075Z,99920.92
2023-04-11T06:28:23.697Z,99912.23
2023-04-11T06:30:15.746Z,99913.55
2023-04-11T06:32:08.343Z,99912.83
2023-04-11T06:34:02.692Z,99911.67
2023-04-11T06:35:54.696Z,99913.95
2023-04-11T06:37:46.593Z,99909.48
2023-04-11T06:39:38.409Z,99903.70
2023-04-11T06:41:29.988Z,99906.23
2023-04-11T06:43:22.365Z,99901.87
2023-04-11T06:45:14.083Z,99897.21
2023-04-11T06:47:05.607Z,99893.73
2023-04-11T06:48:57.078Z,99892.16
2023-04-11T06:50:48.732Z,99891.83
2023-04-11T06:52:40.455Z,99891.05
2023-04-11T06:54:32.373Z,99888.76
2023-04-11T06:56:23.702Z,99888.85
2023-04-11T06:58:16.439Z,99881.13
2023-04-11T07:00:08.893Z,99887.57
2023-04-11T07:02:00.802Z,99895.44
2023-04-11T07:03:55.698Z,99904.29
2023-04-11T07:05:47.639Z,99910.54
2023-04-11T07:07:39.886Z,99897.64
2023-04-11T07:09:32.047Z,99892.00
2023-04-11T07:11:23.966Z,99891.27
2023-04-11T07:13:15.910Z,99897.33
2023-04-11T07:15:08.976Z,99893.10
2023-04-11T07:17:01.505Z,99890.80
2023-04-11T07:18:54.223Z,99887.52
2023-04-11T07:20:46.442Z,99884.27
2023-04-11T07:22:38.009Z,99882.41
2023-04-11T07:24:30.643Z,99880.89
2023-04-11T07:26:23.774Z,99879.08
2023-04-11T07:28:15.541Z,99874.60
2023-04-11T07:30:08.217Z,99872.89
2023-04-11T07:31:59.942Z,99864.31
2023-04-11T07:33:52.041Z,99858.86
2023-04-11T07:35:43.935Z,99856.65
2023-04-11T07:37:35.668Z,99852.45
2023-04-11T07:39:27.789Z,99851.95
2023-04-11T07:41:19.636Z,99854.05
2023-04-11T07:43:11.506Z,99848.67
2023-04-11T07:45:03.222Z,99846.67
2023-04-11T07:46:54.619Z,99847.40
2023-04-11T07:48:46.631Z,99844.73
2023-04-11T07:50:38.461Z,99843.36
2023-04-11T07:52:30.163Z,99838.41
2023-04-11T07:54:21.828Z,99831.57
2023-04-11T07:56:15.160Z,99831.59
2023-04-11T07:58:07.372Z,99826.55
2023-04-11T07:59:59.652Z,99824.78
2023-04-11T08:02:05.024Z,99821.81
2023-04-11T08:03:57.365Z,99818.55
2023-04-11T08:05:49.813Z,99812.46
2023-04-11T08:07:42.075Z,99810.46
2023-04-11T08:09:34.423Z,99812.93
2023-04-11T08:11:25.999Z,99803.83
2023-04-11T08:13:17.658Z,99808.20
2023-04-11T08:15:10.717Z,99808.00
2023-04-11T08:17:02.698Z,99813.85
2023-04-11T08:18:54.220Z,99809.42
2023-04-11T08:20:45.837Z,99806.19
2023-04-11T08:22:58.897Z,99801.80
2023-04-11T08:24:52.853Z,99796.89
2023-04-11T08:26:44.666Z,99793.55
2023-04-11T08:28:36.314Z,99793.27
2023-04-11T08:30:27.928Z,99790.56
2023-04-11T08:32:19.697Z,99790.09
2023-04-11T08:34:12.505Z,99789.16
2023-04-11T08:36:05.434Z,99795.02
2023-04-11T08:37:56.945Z,99783.77
2023-04-11T08:39:48.855Z,99778.66
2023-04-11T08:41:40.584Z,99778.74
2023-04-11T08:43:36.701Z,99773.80
2023-04-11T08:45:29.158Z,99774.15
2023-04-11T08:47:21.838Z,99771.20
2023-04-11T08:49:13.439Z,99773.96
2023-04-11T08:51:06.088Z,99765.35
2023-04-11T08:53:03.824Z,99763.29
2023-04-11T08:54:55.394Z,99762.31
2023-04-11T08:56:48.106Z,99766.13
2023-04-11T08:58:40.449Z,99766.55
2023-04-11T09:00:33.132Z,99762.92
2023-04-11T09:02:25.161Z,99762.46
2023-04-11T09:04:16.898Z,99762.17
2023-04-11T09:06:11.679Z,99758.14
2023-04-11T09:08:08.408Z,99754.37
2023-04-11T09:10:18.096Z,99749.66
2023-04-11T09:12:09.847Z,99743.29
2023-04-11T09:14:06.884Z,99729.70
2023-04-11T09:16:14.650Z,99743.09
2023-04-11T09:18:06.175Z,99740.67
2023-04-11T09:20:16.939Z,99738.06
2023-04-11T09:22:09.096Z,99736.23
2023-04-11T09:24:15.406Z,99729.44
2023-04-11T09:26:08.382Z,99724.80
2023-04-11T09:28:10.442Z,99719.64
2023-04-11T09:30:02.272Z,99719.58
2023-04-11T09:31:54.068Z,99720.65
2023-04-11T09:34:03.430Z,99710.46
2023-04-11T09:35:56.788Z,99715.48
2023-04-11T09:37:50.905Z,99712.80
2023-04-11T09:39:43.828Z,99707.34
2023-04-11T09:41:36.271Z,99707.76
2023-04-11T09:43:28.289Z,99711.96
2023-04-11T09:45:21.900Z,99711.79
2023-04-11T09:47:13.721Z,99715.93
2023-04-11T09:49:05.565Z,99719.86
2023-04-11T09:50:58.817Z,99719.47
2023-04-11T09:52:52.881Z,99723.90
2023-04-11T09:54:45.024Z,99722.44
2023-04-11T09:56:36.714Z,99722.59
2023-04-11T09:58:31.458Z,99719.12
2023-04-11T10:00:30.240Z,99715.26
2023-04-11T10:02:22.090Z,99716.86
2023-04-11T10:04:14.505Z,99715.83
2023-04-11T10:06:14.299Z,99713.39
2023-04-11T10:08:12.451Z,99717.07
2023-04-11T10:10:04.377Z,99726.17
2023-04-11T10:11:55.853Z,99728.87
2023-04-11T10:13:49.477Z,99729.20
2023-04-11T10:16:16.406Z,99728.42
2023-04-11T10:18:10.289Z,99730.64
2023-04-11T10:20:01.751Z,99737.27
2023-04-11T10:21:53.294Z,99737.72
2023-04-11T10:24:17.130Z,99741.41
2023-04-11T10:26:10.055Z,99742.03
2023-04-11T10:28:03.978Z,99742.45
2023-04-11T10:29:55.874Z,99742.21
2023-04-11T10:32:17.526Z,99741.68
2023-04-11T10:34:14.500Z,99747.00
2023-04-11T10:36:10.248Z,99746.84
2023-04-11T10:38:02.557Z,99748.67
2023-04-11T10:39:54.524Z,99754.46
2023-04-11T10:41:46.429Z,99755.58
2023-04-11T10:43:39.229Z,99753.25
2023-04-11T10:45:30.995Z,99752.11
2023-04-11T10:47:26.168Z,99755.61
2023-04-11T10:49:35.074Z,99760.65
2023-04-11T10:51:27.849Z,99764.55
2023-04-11T10:53:37.068Z,99758.98
2023-04-11T11:20:20.179Z,99800.55
2023-04-11T11:22:29.904Z,99809.74
2023-04-11T11:24:27.391Z,99816.52
2023-04-11T11:26:18.848Z,99809.94
2023-04-11T11:28:10.581Z,99810.50
2023-04-11T11:30:11.809Z,99811.49
2023-04-11T11:32:04.736Z,99814.26
2023-04-11T11:34:04.695Z,99815.88
2023-04-11T11:36:05.820Z,99823.70
2023-04-11T11:37:57.370Z,99825.70
2023-04-11T11:39:50.046Z,99830.34
2023-04-11T11:41:41.709Z,99834.42
2023-04-11T11:43:37.096Z,99833.90
2023-04-11T11:45:28.744Z,99828.23
2023-04-11T11:47:19.860Z,99824.81
2023-04-11T11:49:11.333Z,99824.96
2023-04-11T11:51:02.696Z,99821.25
2023-04-11T11:52:54.688Z,99822.85
2023-04-11T11:54:47.397Z,99824.89
2023-04-11T11:56:40.036Z,99831.02
2023-04-11T11:58:34.224Z,99834.69
2023-04-11T12:00:27.574Z,99839.02
2023-04-11T12:02:19.070Z,99837.88
2023-04-11T12:04:13.218Z,99844.61
2023-04-11T12:06:09.157Z,99846.94
2023-04-11T12:08:04.676Z,99850.36
2023-04-11T12:10:06.446Z,99849.55
2023-04-11T12:11:57.914Z,99851.39
2023-04-11T12:13:53.291Z,99850.79
2023-04-11T12:15:49.080Z,99848.42
2023-04-11T12:17:41.469Z,99842.98
2023-04-11T12:19:33.441Z,99837.61
2023-04-11T12:21:25.368Z,99833.70
2023-04-11T12:23:17.691Z,99834.13
2023-04-11T12:25:11.848Z,99831.68
2023-04-11T12:27:07.451Z,99830.71
2023-04-11T12:29:02.193Z,99826.10
2023-04-11T12:30:53.747Z,99830.77
2023-04-11T12:32:45.586Z,99827.93
2023-04-11T12:34:37.153Z,99831.04
2023-04-11T12:36:29.669Z,99825.49
2023-04-11T12:38:21.323Z,99827.63
2023-04-11T12:40:13.375Z,99824.98
2023-04-11T12:42:04.984Z,99823.91
2023-04-11T12:43:56.577Z,99820.96
2023-04-11T12:45:48.673Z,99821.55
2023-04-11T12:47:41.073Z,99818.88
2023-04-11T12:49:32.867Z,99818.86
2023-04-11T12:51:24.544Z,99808.73
2023-04-11T12:53:15.835Z,99799.95
2023-04-11T12:55:08.803Z,99794.31
2023-04-11T12:57:00.520Z,99785.48
2023-04-11T12:58:52.363Z,99776.84
2023-04-11T13:00:43.978Z,99774.30
2023-04-11T13:02:43.260Z,99772.11
2023-04-11T13:04:36.551Z,99772.41
2023-04-11T13:06:28.826Z,99771.80
2023-04-11T13:08:21.387Z,99769.54
2023-04-11T13:10:16.692Z,99772.42
2023-04-11T13:12:08.216Z,99775.98
2023-04-11T13:13:59.857Z,99780.86
2023-04-11T13:15:51.778Z,99784.38
2023-04-11T13:17:43.840Z,99792.55
2023-04-11T13:19:35.556Z,99797.92
2023-04-11T13:21:27.020Z,99799.20
2023-04-11T13:23:19.818Z,99807.87
2023-04-11T13:25:12.470Z,99815.86
2023-04-11T13:27:04.293Z,99819.91
2023-04-11T13:28:56.324Z,99828.54
2023-04-11T13:30:48.020Z,99835.70
2023-04-11T13:32:39.448Z,99836.41
2023-04-11T13:34:31.479Z,99834.67
2023-04-11T13:36:23.440Z,99839.53
2023-04-11T13:38:15.246Z,99840.17
2023-04-11T13:40:08.713Z,99842.02
2023-04-11T13:42:00.672Z,99838.14
2023-04-11T13:43:52.948Z,99836.34
2023-04-11T13:45:44.555Z,99835.65
2023-04-11T13:47:38.420Z,99828.29
2023-04-11T13:49:30.619Z,99827.92
2023-04-11T13:51:21.965Z,99827.77
2023-04-11T13:53:13.853Z,99823.52
2023-04-11T13:55:06.350Z,99827.16
2023-04-11T13:56:59.221Z,99827.93
2023-04-11T13:58:51.666Z,99824.11
2023-04-11T14:00:46.976Z,99827.04
2023-04-11T14:02:40.273Z,99827.64
2023-04-11T14:04:32.577Z,99827.33
2023-04-11T14:06:24.336Z,99825.29
2023-04-11T14:08:16.093Z,99826.55
2023-04-11T14:10:08.083Z,99824.80
2023-04-11T14:12:00.036Z,99827.08
2023-04-11T14:13:51.584Z,99821.41
2023-04-11T14:15:42.886Z,99823.52
2023-04-11T14:17:34.760Z,99821.31
2023-04-11T14:19:26.583Z,99816.33
2023-04-11T14:21:18.086Z,99817.05
2023-04-11T14:23:10.823Z,99819.51
2023-04-11T14:25:02.334Z,99814.21
2023-04-11T14:26:54.032Z,99815.52
2023-04-11T14:28:45.874Z,99815.66
2023-04-11T14:30:37.800Z,99816.55
2023-04-11T14:32:29.515Z,99815.72
2023-04-11T14:34:21.176Z,99817.76
2023-04-11T14:36:12.721Z,99817.21
2023-04-11T14:38:04.640Z,99816.75
2023-04-11T14:39:55.824Z,99817.34
2023-04-11T14:41:48.107Z,99816.40
2023-04-11T14:43:39.660Z,99816.86
2023-04-11T14:45:30.984Z,99812.54
2023-04-11T14:47:22.996Z,99817.02
2023-04-11T14:49:15.483Z,99815.88
2023-04-11T14:51:07.427Z,99816.05
2023-04-11T14:52:59.287Z,99817.42
2023-04-11T14:54:51.124Z,99820.30
2023-04-11T14:56:42.911Z,99818.35
2023-04-11T14:58:34.839Z,99811.05
2023-04-11T15:00:26.973Z,99810.70
2023-04-11T15:02:19.030Z,99807.50
2023-04-11T15:04:11.063Z,99808.32
2023-04-11T15:06:02.863Z,99811.91
2023-04-11T15:07:54.698Z,99809.15
2023-04-11T15:09:47.102Z,99816.86
2023-04-11T15:11:38.496Z,99819.50
2023-04-11T15:13:30.567Z,99826.67
2023-04-11T15:15:22.598Z,99822.43
2023-04-11T15:17:14.411Z,99820.59
2023-04-11T15:19:06.430Z,99819.84
2023-04-11T15:21:03.306Z,99823.98
2023-04-11T15:22:55.292Z,99819.36
2023-04-11T15:24:47.349Z,99829.99
2023-04-11T15:26:42.977Z,99829.59
2023-04-11T15:28:38.922Z,99834.36
2023-04-11T15:30:30.654Z,99833.25
2023-04-11T15:32:22.196Z,99834.33
2023-04-11T15:34:16.861Z,99832.91
2023-04-11T15:36:08.912Z,99830.45
2023-04-11T15:38:00.613Z,99829.52
2023-04-11T15:39:52.750Z,99825.52
2023-04-11T15:41:44.029Z,99820.67
2023-04-11T15:43:35.778Z,99825.98
2023-04-11T15:45:27.392Z,99823.30
2023-04-11T15:47:19.000Z,99818.69
2023-04-11T15:49:10.576Z,99817.75
2023-04-11T15:51:09.079Z,99816.58
2023-04-11T15:53:01.048Z,99819.90
2023-04-11T15:54:52.921Z,99818.87
2023-04-11T15:56:44.537Z,99815.35
2023-04-11T15:58:36.794Z,99815.30
2023-04-11T16:00:28.607Z,99815.33
2023-04-11T16:02:20.717Z,99820.16
2023-04-11T16:04:12.822Z,99826.81
2023-04-11T16:06:05.907Z,99826.49
2023-04-11T16:07:58.803Z,99824.56
2023-04-11T16:09:50.521Z,99825.44
2023-04-11T16:11:44.690Z,99823.34
2023-04-11T16:13:36.431Z,99827.37
2023-04-11T16:15:28.295Z,99826.16
2023-04-11T16:17:20.619Z,99829.34
2023-04-11T16:19:12.333Z,99828.92
2023-04-11T16:21:04.423Z,99824.50
2023-04-11T16:22:56.080Z,99827.62
2023-04-11T16:24:47.717Z,99828.17
2023-04-11T16:26:39.130Z,99827.57
2023-04-11T16:28:30.709Z,99832.86
2023-04-11T16:30:22.281Z,99828.97
2023-04-11T16:32:14.026Z,99823.15
2023-04-11T16:34:05.819Z,99826.77
2023-04-11T16:35:57.671Z,99829.30
2023-04-11T16:37:49.402Z,99830.34
2023-04-11T16:39:40.997Z,99826.69
2023-04-11T16:45:00.758Z,99834.75
2023-04-11T16:46:52.119Z,99835.73
2023-04-11T16:48:43.939Z,99837.04
2023-04-11T16:50:36.267Z,99835.18
2023-04-11T16:52:28.334Z,99837.77
2023-04-11T16:54:20.129Z,99834.65
2023-04-11T16:56:15.067Z,99835.70
2023-04-11T16:58:08.892Z,99839.30
2023-04-11T17:00:01.065Z,99841.91
2023-04-11T17:02:01.550Z,99848.64
2023-04-11T17:04:09.735Z,99861.30
2023-04-11T17:06:02.663Z,99861.86
2023-04-11T17:07:54.509Z,99860.86
2023-04-11T17:09:47.616Z,99864.61
2023-04-11T17:11:39.941Z,99864.33
2023-04-11T17:13:31.405Z,99870.82
2023-04-11T17:15:23.317Z,99872.93
2023-04-11T17:17:15.616Z,99872.83
2023-04-11T17:19:07.748Z,99880.47
2023-04-11T17:20:59.756Z,99880.20
2023-04-11T17:22:51.683Z,99885.21
2023-04-11T17:24:43.763Z,99888.98
2023-04-11T17:26:36.227Z,99893.61
2023-04-11T17:28:32.176Z,99891.00
2023-04-11T17:30:23.988Z,99892.39
2023-04-11T17:32:16.137Z,99893.32
2023-04-11T17:34:08.143Z,99896.00
2023-04-11T17:36:00.709Z,99896.59
2023-04-11T17:37:52.477Z,99897.64
2023-04-11T17:39:46.423Z,99898.17
2023-04-11T17:41:37.667Z,99894.98
2023-04-11T17:43:29.872Z,99894.54
2023-04-11T17:45:22.445Z,99896.48
2023-04-11T17:47:14.216Z,99899.05
2023-04-11T17:49:06.464Z,99901.36
2023-04-11T17:50:59.930Z,99906.77
2023-04-11T17:52:52.257Z,99907.46
2023-04-11T17:54:44.204Z,99914.09
2023-04-11T17:56:36.557Z,99937.80
2023-04-11T17:58:28.627Z,99949.63
2023-04-11T18:00:22.964Z,99955.60
2023-04-11T18:02:15.369Z,99956.88
2023-04-11T18:04:09.582Z,99953.98
2023-04-11T18:06:01.484Z,99965.59
2023-04-11T18:08:02.638Z,99969.89
2023-04-11T18:09:54.560Z,99967.45
2023-04-11T18:11:46.462Z,99976.99
2023-04-11T18:13:38.424Z,99980.41
2023-04-11T18:15:36.598Z,99979.38
2023-04-11T18:17:30.684Z,99980.46
2023-04-11T18:19:27.492Z,99978.30
2023-04-11T18:21:23.900Z,99977.67
2023-04-11T18:23:16.089Z,99978.05
2023-04-11T18:25:12.201Z,99981.70
2023-04-11T18:27:03.987Z,99984.88
2023-04-11T18:28:55.966Z,99981.64
2023-04-11T18:30:47.703Z,99970.83
2023-04-11T18:32:45.060Z,99969.73
2023-04-11T18:34:40.832Z,99968.52
2023-04-11T18:36:32.961Z,99959.59
2023-04-11T18:38:25.725Z,99960.48
2023-04-11T18:40:18.248Z,99956.65
2023-04-11T18:42:10.842Z,99959.96
2023-04-11T18:44:03.518Z,99973.11
2023-04-11T18:45:57.611Z,99981.77
2023-04-11T18:47:51.147Z,99988.11
2023-04-11T18:49:43.472Z,99993.02
2023-04-11T18:51:35.971Z,99994.14
2023-04-11T18:53:30.277Z,99990.03
2023-04-11T18:55:22.712Z,99996.41
2023-04-11T18:57:15.786Z,100001.77
2023-04-11T18:59:09.969Z,100001.55
2023-04-11T19:01:14.621Z,100002.60
2023-04-11T19:03:16.117Z,100000.02
2023-04-11T19:05:13.720Z,100004.51
2023-04-11T19:07:06.101Z,100004.33
2023-04-11T19:08:57.749Z,100004.91
2023-04-11T19:10:52.258Z,100001.05
2023-04-11T19:12:46.022Z,99994.15
2023-04-11T19:14:37.767Z,99990.31
2023-04-11T19:16:30.705Z,99987.13
2023-04-11T19:18:22.830Z,99987.77
2023-04-11T19:20:15.984Z,99987.38
2023-04-11T19:22:07.637Z,99985.64
2023-04-11T19:24:00.121Z,99988.90
2023-04-11T19:25:52.365Z,99989.46
2023-04-11T19:28:04.351Z,99991.67
2023-04-11T19:29:57.732Z,99991.81
2023-04-11T19:31:51.671Z,99989.95
2023-04-11T19:33:43.405Z,99990.96
2023-04-11T19:35:55.302Z,99982.12
2023-04-11T19:37:47.191Z,99987.04
2023-04-11T19:39:39.291Z,99983.33
2023-04-11T19:41:31.376Z,99983.50
2023-04-11T19:43:23.394Z,99979.58
2023-04-11T19:45:15.134Z,99979.23
2023-04-11T19:47:06.899Z,99975.16
2023-04-11T19:48:58.426Z,99980.98
2023-04-11T19:50:51.851Z,99980.16
2023-04-11T19:52:43.914Z,99977.41
2023-04-11T19:54:37.141Z,99980.11
2023-04-11T19:56:28.771Z,99980.41
2023-04-11T19:58:21.444Z,99984.52
2023-04-11T20:00:14.446Z,99986.66
2023-04-11T20:02:06.225Z,99987.30
2023-04-11T20:03:58.343Z,99984.33
2023-04-11T20:05:50.223Z,99983.78
2023-04-11T20:07:44.064Z,99985.64
2023-04-11T20:09:36.772Z,99984.45
2023-04-11T20:11:29.251Z,99984.08
2023-04-11T20:13:21.543Z,99984.41
2023-04-11T20:15:13.256Z,99990.15
2023-04-11T20:17:06.161Z,99988.38
2023-04-11T20:18:57.767Z,99991.24
2023-04-11T20:20:49.652Z,99994.42
2023-04-11T20:22:41.235Z,99995.34
2023-04-11T20:24:33.490Z,99994.15
2023-04-11T20:26:24.953Z,99996.42
2023-04-11T20:28:16.953Z,99997.78
2023-04-11T20:30:12.245Z,99994.91
2023-04-11T20:32:03.661Z,99988.10
2023-04-11T20:33:55.654Z,99985.40
2023-04-11T20:35:47.735Z,99991.31
2023-04-11T20:37:40.337Z,99993.41
2023-04-11T20:39:32.467Z,99998.98
2023-04-11T20:41:24.566Z,100000.92
2023-04-11T20:43:17.643Z,100004.88
2023-04-11T20:45:13.608Z,100013.64
2023-04-11T20:47:05.155Z,100012.84
2023-04-11T20:48:57.000Z,100014.80
2023-04-11T20:50:48.533Z,100017.83
2023-04-11T20:52:41.941Z,100014.29
2023-04-11T20:54:33.529Z,100012.59
2023-04-11T20:56:25.381Z,100011.64
2023-04-11T20:58:20.833Z,100014.17
2023-04-11T21:00:14.457Z,100016.02
2023-04-11T21:02:07.371Z,100014.80
2023-04-11T21:04:03.467Z,100015.63
2023-04-11T21:05:55.424Z,100013.93
2023-04-11T21:07:47.417Z,100019.81
2023-04-11T21:09:39.088Z,100016.75
2023-04-11T21:11:30.988Z,100014.33
2023-04-11T21:13:22.177Z,100017.57
2023-04-11T21:15:13.786Z,100012.52
2023-04-11T21:17:07.863Z,100008.95
2023-04-11T21:18:58.960Z,100013.66
2023-04-11T21:20:50.673Z,100010.27
2023-04-11T21:22:42.135Z,100013.95
2023-04-11T21:24:34.931Z,100010.61
2023-04-11T21:26:26.236Z,100012.48
2023-04-11T21:28:17.227Z,100012.65
2023-04-11T21:30:09.643Z,100017.75
2023-04-11T21:32:01.435Z,100016.55
2023-04-11T21:33:53.230Z,100016.50
2023-04-11T21:35:45.110Z,100019.96
2023-04-11T21:37:36.648Z,100017.85
2023-04-11T21:39:28.212Z,100020.81
2023-04-11T21:41:19.884Z,100020.03
2023-04-11T21:43:11.497Z,100014.09
2023-04-11T21:45:03.002Z,100021.91
2023-04-11T21:46:54.243Z,100023.66
2023-04-11T21:48:45.680Z,100019.70
2023-04-11T21:50:37.457Z,100017.58
2023-04-11T21:52:29.016Z,100018.13
2023-04-11T21:54:20.107Z,100020.09
2023-04-11T21:56:11.328Z,100019.73
2023-04-11T21:58:02.729Z,100022.74
2023-04-11T21:59:53.873Z,100022.48
2023-04-11T22:01:47.994Z,100023.19
2023-04-11T22:03:42.719Z,100019.89
2023-04-11T22:05:34.045Z,100018.59
2023-04-11T22:07:25.257Z,100019.15
2023-04-11T22:09:19.017Z,100022.23
2023-04-11T22:11:14.089Z,100026.88
2023-04-11T22:13:05.624Z,100023.27
2023-04-11T22:14:57.161Z,100021.61
2023-04-11T22:16:49.307Z,100026.75
2023-04-11T22:18:47.120Z,100027.63
2023-04-11T22:20:40.652Z,100032.11
2023-04-11T22:22:32.336Z,100029.73